createdAt,value
2023-02-06T00:00:55.496Z,0.32
2023-02-06T00:03:23.085Z,0.36
2023-02-06T00:05:57.998Z,0.36
2023-02-06T00:08:27.743Z,0.24
2023-02-06T00:10:55.914Z,0.12
2023-02-06T00:13:23.818Z,-0.09
2023-02-06T00:15:51.504Z,-0.22
2023-02-06T00:18:19.095Z,-0.33
2023-02-06T00:20:46.783Z,-0.44
2023-02-06T00:23:14.401Z,-0.51
2023-02-06T00:25:43.430Z,-0.62
2023-02-06T00:28:11.118Z,-0.69
2023-02-06T00:30:38.824Z,-0.69
2023-02-06T00:33:06.518Z,-0.69
2023-02-06T00:35:34.384Z,-0.62
2023-02-06T00:38:02.476Z,-0.39
2023-02-06T00:40:30.342Z,-0.14
2023-02-06T00:42:59.389Z,0.09
2023-02-06T00:45:27.030Z,0.21
2023-02-06T00:47:54.950Z,0.28
2023-02-06T00:50:22.560Z,0.33
2023-02-06T00:52:50.143Z,0.29
2023-02-06T00:55:17.884Z,0.23
2023-02-06T00:57:45.485Z,0.15
2023-02-06T01:00:15.925Z,0.06
2023-02-06T01:02:43.647Z,-0.06
2023-02-06T01:05:11.722Z,-0.17
2023-02-06T01:07:40.177Z,-0.28
2023-02-06T01:10:09.121Z,-0.33
2023-02-06T01:12:37.783Z,-0.36
2023-02-06T01:15:06.492Z,-0.38
2023-02-06T01:17:35.537Z,-0.44
2023-02-06T01:20:03.817Z,-0.51
2023-02-06T01:22:33.835Z,-0.59
2023-02-06T01:25:02.053Z,-0.66
2023-02-06T01:27:29.759Z,-0.73
2023-02-06T01:29:57.393Z,-0.77
2023-02-06T01:32:25.002Z,-0.81
2023-02-06T01:34:53.966Z,-0.82
2023-02-06T01:37:21.658Z,-0.90
2023-02-06T01:39:49.322Z,-0.89
2023-02-06T01:42:16.901Z,-0.86
2023-02-06T01:44:44.531Z,-0.86
2023-02-06T01:47:12.496Z,-0.87
2023-02-06T01:49:45.390Z,-0.87
2023-02-06T01:52:19.265Z,-0.91
2023-02-06T01:54:50.473Z,-0.92
2023-02-06T01:57:19.802Z,-0.94
2023-02-06T01:59:52.011Z,-0.95
2023-02-06T02:02:20.098Z,-0.97
2023-02-06T02:04:47.919Z,-1.00
2023-02-06T02:07:21.730Z,-1.03
2023-02-06T02:09:49.903Z,-1.06
2023-02-06T02:12:17.766Z,-1.09
2023-02-06T02:14:47.114Z,-1.13
2023-02-06T02:17:28.526Z,-1.15
2023-02-06T02:20:33.838Z,-1.17
2023-02-06T02:23:23.663Z,-1.14
2023-02-06T02:26:24.613Z,-1.07
2023-02-06T02:29:37.196Z,-0.96
2023-02-06T02:32:50.624Z,-0.85
2023-02-06T02:35:28.171Z,-0.74
2023-02-06T02:38:04.432Z,-0.65
2023-02-06T02:40:40.613Z,-0.53
2023-02-06T02:43:17.530Z,-0.46
2023-02-06T02:45:50.409Z,-0.40
2023-02-06T02:48:22.754Z,-0.35
2023-02-06T02:50:52.270Z,-0.34
2023-02-06T02:53:20.758Z,-0.36
2023-02-06T02:55:48.678Z,-0.40
2023-02-06T02:58:19.723Z,-0.45
2023-02-06T03:00:52.215Z,-0.51
2023-02-06T03:03:23.101Z,-0.55
2023-02-06T03:06:07.563Z,-0.56
2023-02-06T03:08:44.190Z,-0.57
2023-02-06T03:11:16.057Z,-0.58
2023-02-06T03:13:52.230Z,-0.59
2023-02-06T03:16:24.878Z,-0.61
2023-02-06T03:18:59.634Z,-0.64
2023-02-06T03:21:30.267Z,-0.69
2023-02-06T03:24:02.183Z,-0.73
2023-02-06T03:26:32.614Z,-0.75
2023-02-06T03:29:03.343Z,-0.77
2023-02-06T03:31:35.347Z,-0.79
2023-02-06T03:34:10.666Z,-0.82
2023-02-06T03:36:40.038Z,-0.85
2023-02-06T03:39:08.259Z,-0.93
2023-02-06T03:41:39.272Z,-0.98
2023-02-06T03:44:11.502Z,-1.01
2023-02-06T03:46:43.044Z,-1.03
2023-02-06T03:49:15.857Z,-1.07
2023-02-06T03:51:50.098Z,-1.08
2023-02-06T03:54:22.631Z,-1.07
2023-02-06T03:56:54.275Z,-1.06
2023-02-06T03:59:22.468Z,-1.06
2023-02-06T04:01:54.987Z,-1.07
2023-02-06T04:04:29.074Z,-1.04
2023-02-06T04:07:01.079Z,-0.99
2023-02-06T04:09:28.650Z,-0.96
2023-02-06T04:11:56.324Z,-0.92
2023-02-06T04:14:23.985Z,-0.85
2023-02-06T04:16:51.559Z,-0.78
2023-02-06T04:19:19.189Z,-0.74
2023-02-06T04:21:46.821Z,-0.71
2023-02-06T04:24:15.752Z,-0.67
2023-02-06T04:26:43.353Z,-0.60
2023-02-06T04:29:12.743Z,-0.51
2023-02-06T04:31:40.452Z,-0.43
2023-02-06T04:34:08.250Z,-0.35
2023-02-06T04:36:36.254Z,-0.19
2023-02-06T04:39:03.991Z,-0.04
2023-02-06T04:41:32.907Z,0.09
2023-02-06T04:44:00.580Z,0.16
2023-02-06T04:46:28.397Z,0.26
2023-02-06T04:48:56.358Z,0.32
2023-02-06T04:51:24.102Z,0.44
2023-02-06T04:53:51.687Z,0.55
2023-02-06T04:56:19.272Z,0.60
2023-02-06T04:58:48.211Z,0.69
2023-02-06T05:01:16.777Z,0.77
2023-02-06T05:03:44.584Z,0.85
2023-02-06T05:06:12.559Z,0.93
2023-02-06T05:08:40.531Z,0.94
2023-02-06T05:11:08.426Z,0.96
2023-02-06T05:13:36.214Z,0.96
2023-02-06T05:16:07.708Z,0.98
2023-02-06T05:18:36.163Z,0.97
2023-02-06T05:21:04.319Z,0.98
2023-02-06T05:23:32.363Z,1.02
2023-02-06T05:26:00.553Z,1.05
2023-02-06T05:28:29.675Z,1.08
2023-02-06T05:30:57.687Z,1.10
2023-02-06T05:33:26.793Z,1.13
2023-02-06T05:35:54.587Z,1.18
2023-02-06T05:38:22.204Z,1.23
2023-02-06T05:40:52.126Z,1.27
2023-02-06T05:43:19.769Z,1.29
2023-02-06T05:45:47.388Z,1.31
2023-02-06T05:48:15.222Z,1.33
2023-02-06T05:50:44.242Z,1.35
2023-02-06T05:53:11.850Z,1.33
2023-02-06T05:55:39.411Z,1.32
2023-02-06T05:58:07.344Z,1.32
2023-02-06T06:00:35.193Z,1.28
2023-02-06T06:03:02.833Z,1.28
2023-02-06T06:05:30.505Z,1.25
2023-02-06T06:07:59.509Z,1.22
2023-02-06T06:10:27.196Z,1.24
2023-02-06T06:12:55.000Z,1.26
2023-02-06T06:15:22.577Z,1.26
2023-02-06T06:17:50.198Z,1.27
2023-02-06T06:20:18.116Z,1.27
2023-02-06T06:22:45.928Z,1.27
2023-02-06T06:25:14.908Z,1.25
2023-02-06T06:27:42.589Z,1.18
2023-02-06T06:30:11.743Z,1.18
2023-02-06T06:32:39.510Z,1.17
2023-02-06T06:35:07.660Z,1.18
2023-02-06T06:37:35.385Z,1.18
2023-02-06T06:40:03.041Z,1.19
2023-02-06T06:42:32.012Z,1.21
2023-02-06T06:44:59.782Z,1.20
2023-02-06T06:47:27.406Z,1.20
2023-02-06T06:49:54.959Z,1.19
2023-02-06T06:52:25.383Z,1.19
2023-02-06T06:54:53.825Z,1.20
2023-02-06T06:57:21.779Z,1.17
2023-02-06T06:59:51.102Z,1.19
2023-02-06T07:02:18.847Z,1.22
2023-02-06T07:04:46.573Z,1.22
2023-02-06T07:07:14.563Z,1.22
2023-02-06T07:09:42.161Z,1.25
2023-02-06T07:12:09.796Z,1.24
2023-02-06T07:14:37.394Z,1.23
2023-02-06T07:17:06.361Z,1.18
2023-02-06T07:19:34.273Z,1.13
2023-02-06T07:22:01.890Z,1.13
2023-02-06T07:24:29.511Z,1.13
2023-02-06T07:26:58.239Z,1.18
2023-02-06T07:29:26.286Z,1.24
2023-02-06T07:31:53.896Z,1.31
2023-02-06T07:34:22.965Z,1.36
2023-02-06T07:36:50.587Z,1.41
2023-02-06T07:39:18.270Z,1.50
2023-02-06T07:41:48.151Z,1.57
2023-02-06T07:44:15.948Z,1.63
2023-02-06T07:46:43.790Z,1.64
2023-02-06T07:49:13.102Z,1.70
2023-02-06T07:51:42.293Z,1.70
2023-02-06T07:54:10.113Z,1.69
2023-02-06T07:56:38.208Z,1.68
2023-02-06T07:59:06.446Z,1.65
2023-02-06T08:01:34.070Z,1.61
2023-02-06T08:04:01.829Z,1.66
2023-02-06T08:06:29.450Z,1.76
2023-02-06T08:08:58.634Z,1.83
2023-02-06T08:11:29.954Z,1.87
2023-02-06T08:13:58.390Z,1.86
2023-02-06T08:16:26.025Z,1.88
2023-02-06T08:18:53.673Z,1.88
2023-02-06T08:21:23.512Z,1.88
2023-02-06T08:23:55.203Z,1.91
2023-02-06T08:26:24.985Z,1.92
2023-02-06T08:28:53.695Z,1.77
2023-02-06T08:31:23.792Z,1.77
2023-02-06T08:33:52.048Z,1.85
2023-02-06T08:36:21.670Z,1.91
2023-02-06T08:38:49.808Z,1.87
2023-02-06T08:41:19.862Z,1.85
2023-02-06T08:43:50.511Z,1.84
2023-02-06T08:46:19.533Z,1.87
2023-02-06T08:48:47.895Z,1.98
2023-02-06T08:51:16.247Z,2.13
2023-02-06T08:53:43.875Z,2.28
2023-02-06T08:56:13.205Z,2.37
2023-02-06T08:58:41.169Z,2.48
2023-02-06T09:01:13.642Z,2.48
2023-02-06T09:03:42.693Z,2.31
2023-02-06T09:06:11.283Z,2.16
2023-02-06T09:08:39.782Z,2.08
2023-02-06T09:11:07.765Z,2.15
2023-02-06T09:13:35.803Z,2.05
2023-02-06T09:16:03.718Z,2.08
2023-02-06T09:18:32.970Z,2.18
2023-02-06T09:21:05.708Z,2.15
2023-02-06T09:23:33.319Z,2.21
2023-02-06T09:26:00.928Z,2.27
2023-02-06T09:28:28.504Z,2.37
2023-02-06T09:30:56.233Z,2.43
2023-02-06T09:33:25.466Z,2.58
2023-02-06T09:36:04.772Z,2.79
2023-02-06T09:38:32.636Z,2.94
2023-02-06T09:41:03.119Z,3.14
2023-02-06T09:43:33.248Z,3.28
2023-02-06T09:46:04.117Z,3.41
2023-02-06T09:48:34.860Z,3.27
2023-02-06T09:51:13.427Z,3.24
2023-02-06T09:53:53.408Z,3.32
2023-02-06T09:56:30.972Z,3.37
2023-02-06T09:59:06.457Z,3.48
2023-02-06T10:01:40.075Z,3.19
2023-02-06T10:04:28.692Z,3.18
2023-02-06T10:07:06.981Z,3.16
2023-02-06T10:09:41.270Z,3.26
2023-02-06T10:12:15.678Z,3.40
2023-02-06T10:14:46.185Z,3.50
2023-02-06T10:17:18.823Z,3.41
2023-02-06T10:19:50.614Z,3.23
2023-02-06T10:22:26.881Z,3.21
2023-02-06T10:25:12.384Z,3.21
2023-02-06T10:27:44.573Z,3.13
2023-02-06T10:30:17.375Z,3.09
2023-02-06T10:32:52.558Z,3.00
2023-02-06T10:35:32.715Z,3.08
2023-02-06T10:38:21.810Z,3.19
2023-02-06T10:40:55.492Z,3.06
2023-02-06T10:43:34.815Z,3.13
2023-02-06T10:46:19.811Z,3.18
2023-02-06T10:48:58.438Z,3.18
2023-02-06T10:51:31.487Z,3.25
2023-02-06T10:54:03.984Z,3.19
2023-02-06T10:56:36.658Z,3.20
2023-02-06T10:59:11.901Z,3.27
2023-02-06T11:01:42.045Z,3.05
2023-02-06T11:04:16.069Z,3.00
2023-02-06T11:06:46.841Z,3.22
2023-02-06T11:09:16.795Z,3.23
2023-02-06T11:11:48.483Z,3.19
2023-02-06T11:14:24.981Z,3.19
2023-02-06T11:16:53.842Z,3.23
2023-02-06T11:19:30.176Z,3.19
2023-02-06T11:22:10.500Z,3.15
2023-02-06T11:24:40.303Z,3.11
2023-02-06T11:27:18.009Z,3.25
2023-02-06T11:29:50.408Z,3.33
2023-02-06T11:32:30.546Z,3.21
2023-02-06T11:35:00.829Z,3.31
2023-02-06T11:37:35.347Z,3.25
2023-02-06T11:40:23.349Z,3.26
2023-02-06T11:42:53.643Z,3.40
2023-02-06T11:45:26.782Z,3.34
2023-02-06T11:47:54.829Z,3.30
2023-02-06T11:50:28.302Z,3.18
2023-02-06T11:53:00.443Z,3.14
2023-02-06T11:55:34.233Z,3.29
2023-02-06T11:58:06.168Z,3.29
2023-02-06T12:00:35.912Z,3.07
2023-02-06T12:03:04.464Z,2.85
2023-02-06T12:05:35.950Z,2.90
2023-02-06T12:08:07.312Z,3.08
2023-02-06T12:10:40.502Z,2.90
2023-02-06T12:13:17.887Z,2.90
2023-02-06T12:15:48.501Z,3.02
2023-02-06T12:18:21.918Z,2.96
2023-02-06T12:20:54.138Z,3.10
2023-02-06T12:23:28.462Z,3.35
2023-02-06T12:26:00.806Z,3.30
2023-02-06T12:28:34.449Z,3.43
2023-02-06T12:31:05.280Z,3.31
2023-02-06T12:33:41.191Z,3.34
2023-02-06T12:36:15.922Z,3.41
2023-02-06T12:38:48.187Z,3.40
2023-02-06T12:41:47.329Z,3.44
2023-02-06T12:44:25.402Z,3.25
2023-02-06T12:46:57.832Z,3.22
2023-02-06T12:49:29.679Z,3.19
2023-02-06T12:52:04.757Z,3.09
2023-02-06T12:54:37.122Z,3.19
2023-02-06T12:57:14.896Z,3.19
2023-02-06T13:00:05.247Z,3.12
2023-02-06T13:03:13.659Z,3.13
2023-02-06T13:05:44.776Z,3.12
2023-02-06T13:08:16.266Z,2.92
2023-02-06T13:10:44.610Z,2.97
2023-02-06T13:13:28.886Z,3.05
2023-02-06T13:16:00.330Z,2.99
2023-02-06T13:19:04.256Z,2.95
2023-02-06T13:21:33.853Z,2.99
2023-02-06T13:24:17.520Z,3.01
2023-02-06T13:27:14.294Z,2.93
2023-02-06T13:29:44.631Z,2.86
2023-02-06T13:32:32.436Z,2.91
2023-02-06T13:35:14.794Z,3.01
2023-02-06T13:37:44.160Z,3.04
2023-02-06T13:40:30.527Z,3.12
2023-02-06T13:43:02.344Z,3.12
2023-02-06T13:45:34.565Z,3.19
2023-02-06T13:48:51.302Z,3.30
2023-02-06T13:51:43.736Z,3.30
2023-02-06T13:54:41.548Z,3.39
2023-02-06T13:57:29.277Z,3.48
2023-02-06T14:00:02.168Z,3.56
2023-02-06T14:02:38.975Z,3.66
2023-02-06T14:05:12.533Z,3.70
2023-02-06T14:07:58.360Z,3.71
2023-02-06T14:10:49.034Z,3.73
2023-02-06T14:13:32.931Z,3.60
2023-02-06T14:16:19.157Z,3.60
2023-02-06T14:18:56.566Z,3.49
2023-02-06T14:21:37.372Z,3.44
2023-02-06T14:24:22.978Z,3.43
2023-02-06T14:27:00.902Z,3.38
2023-02-06T14:29:40.830Z,3.43
2023-02-06T14:32:28.950Z,3.47
2023-02-06T14:35:16.621Z,3.53
2023-02-06T14:38:13.415Z,3.54
2023-02-06T14:40:44.011Z,3.55
2023-02-06T14:43:17.878Z,3.51
2023-02-06T14:46:05.423Z,3.48
2023-02-06T14:48:39.713Z,3.42
2023-02-06T14:51:10.052Z,3.42
2023-02-06T14:53:39.009Z,3.41
2023-02-06T14:56:10.124Z,3.40
2023-02-06T14:58:37.740Z,3.32
2023-02-06T15:01:15.272Z,3.25
2023-02-06T15:03:43.435Z,3.13
2023-02-06T15:06:15.273Z,3.12
2023-02-06T15:08:49.419Z,3.09
2023-02-06T15:11:20.911Z,3.08
2023-02-06T15:13:51.672Z,3.05
2023-02-06T15:16:19.459Z,3.02
2023-02-06T15:18:47.226Z,2.98
2023-02-06T15:21:18.547Z,2.97
2023-02-06T15:24:00.973Z,2.91
2023-02-06T15:26:35.488Z,2.86
2023-02-06T15:29:06.212Z,2.78
2023-02-06T15:31:33.952Z,2.76
2023-02-06T15:34:02.312Z,2.74
2023-02-06T15:36:35.050Z,2.74
2023-02-06T15:39:06.280Z,2.67
2023-02-06T15:41:35.512Z,2.59
2023-02-06T15:44:07.618Z,2.52
2023-02-06T15:46:35.589Z,2.48
2023-02-06T15:49:03.486Z,2.45
2023-02-06T15:51:40.910Z,2.42
2023-02-06T15:54:11.039Z,2.27
2023-02-06T15:56:42.154Z,2.29
2023-02-06T15:59:17.775Z,2.28
2023-02-06T16:01:46.096Z,2.17
2023-02-06T16:04:18.010Z,2.18
2023-02-06T16:06:47.973Z,2.19
2023-02-06T16:09:21.873Z,2.14
2023-02-06T16:11:54.033Z,2.15
2023-02-06T16:14:25.355Z,2.17
2023-02-06T16:17:04.318Z,2.13
2023-02-06T16:19:47.603Z,2.11
2023-02-06T16:22:22.667Z,2.08
2023-02-06T16:24:51.220Z,2.07
2023-02-06T16:27:22.101Z,2.06
2023-02-06T16:29:52.742Z,2.08
2023-02-06T16:32:24.300Z,2.04
2023-02-06T16:34:52.731Z,2.04
2023-02-06T16:37:23.732Z,1.96
2023-02-06T16:39:51.887Z,1.93
2023-02-06T16:42:21.816Z,1.91
2023-02-06T16:44:51.926Z,1.87
2023-02-06T16:47:21.909Z,1.86
2023-02-06T16:49:49.843Z,1.88
2023-02-06T16:52:20.852Z,1.87
2023-02-06T16:54:50.759Z,1.87
2023-02-06T16:57:26.977Z,1.85
2023-02-06T16:59:54.981Z,1.84
2023-02-06T17:02:22.853Z,1.82
2023-02-06T17:04:51.046Z,1.81
2023-02-06T17:07:20.533Z,1.76
2023-02-06T17:09:50.294Z,1.75
2023-02-06T17:12:20.422Z,1.72
2023-02-06T17:14:48.843Z,1.72
2023-02-06T17:17:18.821Z,1.72
2023-02-06T17:19:46.596Z,1.72
2023-02-06T17:22:14.847Z,1.71
2023-02-06T17:24:43.740Z,1.72
2023-02-06T17:27:15.917Z,1.70
2023-02-06T17:29:45.592Z,1.68
2023-02-06T17:32:16.064Z,1.60
2023-02-06T17:34:43.715Z,1.58
2023-02-06T17:37:20.636Z,1.54
2023-02-06T17:39:50.006Z,1.51
2023-02-06T17:42:19.533Z,1.51
2023-02-06T17:44:47.282Z,1.50
2023-02-06T17:47:14.915Z,1.49
2023-02-06T17:49:42.607Z,1.48
2023-02-06T17:52:10.232Z,1.49
2023-02-06T17:54:38.096Z,1.49
2023-02-06T17:57:05.760Z,1.49
2023-02-06T17:59:34.680Z,1.51
2023-02-06T18:02:02.840Z,1.49
2023-02-06T18:04:30.462Z,1.48
2023-02-06T18:06:58.223Z,1.47
2023-02-06T18:09:25.832Z,1.47
2023-02-06T18:11:53.612Z,1.44
2023-02-06T18:14:21.575Z,1.44
2023-02-06T18:16:50.661Z,1.45
2023-02-06T18:19:23.821Z,1.42
2023-02-06T18:21:51.672Z,1.41
2023-02-06T18:24:19.293Z,1.40
2023-02-06T18:26:47.451Z,1.38
2023-02-06T18:29:15.145Z,1.36
2023-02-06T18:31:42.897Z,1.38
2023-02-06T18:34:12.520Z,1.38
2023-02-06T18:36:40.283Z,1.39
2023-02-06T18:39:07.918Z,1.37
2023-02-06T18:41:52.914Z,1.35
2023-02-06T18:44:20.590Z,1.35
2023-02-06T18:46:48.330Z,1.35
2023-02-06T18:49:17.576Z,1.30
2023-02-06T18:51:45.312Z,1.31
2023-02-06T18:54:12.946Z,1.31
2023-02-06T18:56:40.589Z,1.30
2023-02-06T18:59:08.257Z,1.27
2023-02-06T19:01:36.066Z,1.22
2023-02-06T19:04:03.958Z,1.21
2023-02-06T19:06:36.498Z,1.17
2023-02-06T19:09:06.969Z,1.16
2023-02-06T19:11:35.273Z,1.12
2023-02-06T19:14:02.959Z,1.13
2023-02-06T19:16:32.412Z,1.10
2023-02-06T19:19:00.217Z,1.11
2023-02-06T19:21:28.201Z,1.10
2023-02-06T19:23:59.277Z,1.10
2023-02-06T19:26:28.389Z,1.08
2023-02-06T19:28:56.997Z,1.07
2023-02-06T19:31:25.292Z,1.10
2023-02-06T19:33:54.553Z,1.11
2023-02-06T19:36:23.963Z,1.15
2023-02-06T19:38:55.920Z,1.16
2023-02-06T19:41:27.856Z,1.19
2023-02-06T19:43:57.200Z,1.11
2023-02-06T19:46:26.925Z,1.17
2023-02-06T19:48:56.380Z,1.10
2023-02-06T19:51:26.305Z,1.10
2023-02-06T19:53:55.887Z,1.13
2023-02-06T19:56:26.511Z,1.17
2023-02-06T19:58:55.898Z,1.20
2023-02-06T20:01:24.056Z,1.24
2023-02-06T20:03:53.059Z,1.26
2023-02-06T20:06:20.770Z,1.28
2023-02-06T20:08:48.804Z,1.27
2023-02-06T20:11:19.727Z,1.22
2023-02-06T20:13:51.980Z,1.21
2023-02-06T20:16:21.430Z,1.21
2023-02-06T20:18:49.419Z,1.13
2023-02-06T20:21:26.770Z,1.13
2023-02-06T20:23:55.345Z,1.11
2023-02-06T20:26:25.361Z,1.13
2023-02-06T20:28:54.612Z,1.13
2023-02-06T20:31:22.677Z,1.16
2023-02-06T20:33:51.421Z,1.08
2023-02-06T20:36:23.684Z,1.05
2023-02-06T20:38:52.769Z,1.04
2023-02-06T20:41:21.701Z,0.99
2023-02-06T20:43:49.488Z,0.99
2023-02-06T20:46:19.910Z,0.97
2023-02-06T20:48:53.190Z,0.97
2023-02-06T20:51:20.943Z,0.94
2023-02-06T20:53:48.654Z,0.90
2023-02-06T20:56:16.879Z,0.87
2023-02-06T20:58:45.405Z,0.84
2023-02-06T21:01:14.668Z,0.84
2023-02-06T21:03:44.466Z,0.85
2023-02-06T21:06:12.297Z,0.85
2023-02-06T21:08:39.945Z,0.82
2023-02-06T21:11:07.684Z,0.82
2023-02-06T21:13:35.928Z,0.83
2023-02-06T21:16:03.813Z,0.82
2023-02-06T21:18:32.727Z,0.85
2023-02-06T21:21:09.411Z,0.83
2023-02-06T21:23:37.520Z,0.81
2023-02-06T21:26:06.546Z,0.79
2023-02-06T21:28:35.749Z,0.78
2023-02-06T21:31:05.957Z,0.77
2023-02-06T21:33:34.665Z,0.77
2023-02-06T21:36:06.727Z,0.76
2023-02-06T21:38:35.341Z,0.73
2023-02-06T21:41:06.283Z,0.72
2023-02-06T21:43:34.815Z,0.71
2023-02-06T21:46:03.584Z,0.68
2023-02-06T21:48:31.747Z,0.66
2023-02-06T21:50:59.644Z,0.67
2023-02-06T21:53:28.693Z,0.66
2023-02-06T21:55:58.984Z,0.65
2023-02-06T21:58:26.778Z,0.65
2023-02-06T22:00:55.416Z,0.65
2023-02-06T22:03:23.168Z,0.67
2023-02-06T22:05:50.806Z,0.67
2023-02-06T22:08:18.684Z,0.61
2023-02-06T22:10:47.660Z,0.55
2023-02-06T22:13:15.406Z,0.52
2023-02-06T22:15:49.133Z,0.49
2023-02-06T22:18:16.806Z,0.49
2023-02-06T22:20:44.507Z,0.48
2023-02-06T22:23:12.224Z,0.42
2023-02-06T22:25:46.736Z,0.35
2023-02-06T22:28:15.781Z,0.32
2023-02-06T22:30:43.487Z,0.25
2023-02-06T22:33:11.145Z,0.20
2023-02-06T22:35:40.014Z,0.20
2023-02-06T22:38:08.101Z,0.17
2023-02-06T22:40:35.832Z,0.22
2023-02-06T22:43:03.615Z,0.18
2023-02-06T22:45:35.675Z,0.22
2023-02-06T22:48:03.560Z,0.24
2023-02-06T22:50:31.242Z,0.28
2023-02-06T22:53:12.749Z,0.29
2023-02-06T22:55:58.512Z,0.29
2023-02-06T22:58:26.135Z,0.29
2023-02-06T23:01:02.439Z,0.30
2023-02-06T23:03:30.182Z,0.30
2023-02-06T23:06:01.828Z,0.29
2023-02-06T23:08:30.267Z,0.30
2023-02-06T23:10:58.281Z,0.28
2023-02-06T23:13:26.420Z,0.25
2023-02-06T23:15:58.141Z,0.25
2023-02-06T23:18:26.882Z,0.23
2023-02-06T23:20:55.291Z,0.24
2023-02-06T23:23:23.074Z,0.24
2023-02-06T23:25:52.280Z,0.25
2023-02-06T23:28:20.500Z,0.23
2023-02-06T23:30:48.593Z,0.17
2023-02-06T23:33:19.233Z,0.13
2023-02-06T23:35:46.955Z,0.11
2023-02-06T23:38:14.570Z,0.13
2023-02-06T23:40:42.221Z,0.13
2023-02-06T23:43:10.946Z,0.11
2023-02-06T23:45:39.271Z,0.10
2023-02-06T23:48:07.243Z,0.10
2023-02-06T23:50:36.298Z,0.13
2023-02-06T23:53:03.997Z,0.13
2023-02-06T23:55:31.660Z,0.12
2023-02-06T23:57:59.427Z,0.13
